Archival Weather

South Haven Area Rgnl

South Haven, Michigan (KLWA)

Report from: Thursday, September 21, 2023 11:55 AM EDT
Current time: Sunday, July 14, 2024 7:07 AM EDT

Current weather – Weather history – Daily summaries
Weather forecast

Temperature23.0°C (73.4°F)
Dew point16.1°C (61.0°F)
Winds 3 kts (1.5 m/s, 3.5 mph) South (170°)
Visibility10 mi. (16.1 km)
Clouds Sky clear
Altimeter30.24 in.Hg (1024 mB)
Relative humidity65 %
Density altitude820 ft. (250 m)
Remarks Fully automated report
Automated weather observing station with precipitation discriminator
Flight conditions Visual Meteorological Conditions
Raw dataKLWA 211555Z AUTO 17003KT 10SM CLR 23/16 A3024 RMK AO2 T02300161
An error has occurred. This application may no longer respond until reloaded. Reload 🗙